sensor_id;sensor_type;location;lat;lon;timestamp;pressure;altitude;pressure_sealevel;temperature;humidity
6464;BME280;3265;42.694;23.282;2022-10-18T00:00:00;96212.66;;;7.26;95.38
6464;BME280;3265;42.694;23.282;2022-10-18T00:02:27;96209.91;;;7.35;94.37
6464;BME280;3265;42.694;23.282;2022-10-18T00:04:54;96199.75;;;7.50;93.76
6464;BME280;3265;42.694;23.282;2022-10-18T00:07:21;96186.81;;;7.50;93.09
6464;BME280;3265;42.694;23.282;2022-10-18T00:09:49;96206.53;;;7.59;92.64
6464;BME280;3265;42.694;23.282;2022-10-18T00:12:16;96195.22;;;7.52;92.36
6464;BME280;3265;42.694;23.282;2022-10-18T00:14:42;96192.63;;;7.52;92.69
6464;BME280;3265;42.694;23.282;2022-10-18T00:17:09;96191.00;;;7.59;92.08
6464;BME280;3265;42.694;23.282;2022-10-18T00:19:36;96191.00;;;7.59;92.40
6464;BME280;3265;42.694;23.282;2022-10-18T00:22:03;96192.47;;;7.54;91.88
6464;BME280;3265;42.694;23.282;2022-10-18T00:24:29;96184.72;;;7.46;92.06
6464;BME280;3265;42.694;23.282;2022-10-18T00:26:57;96175.50;;;7.43;91.66
6464;BME280;3265;42.694;23.282;2022-10-18T00:29:24;96177.75;;;7.46;91.35
6464;BME280;3265;42.694;23.282;2022-10-18T00:31:51;96167.72;;;7.51;91.15
6464;BME280;3265;42.694;23.282;2022-10-18T00:34:18;96168.69;;;7.42;91.55
6464;BME280;3265;42.694;23.282;2022-10-18T00:36:45;96160.63;;;7.37;91.54
6464;BME280;3265;42.694;23.282;2022-10-18T00:39:14;96163.06;;;7.38;91.13
6464;BME280;3265;42.694;23.282;2022-10-18T00:41:41;96161.38;;;7.13;91.25
6464;BME280;3265;42.694;23.282;2022-10-18T00:47:10;96158.84;;;6.29;98.62
6464;BME280;3265;42.694;23.282;2022-10-18T00:49:40;96160.22;;;6.42;98.47
6464;BME280;3265;42.694;23.282;2022-10-18T00:52:11;96149.75;;;6.51;97.36
6464;BME280;3265;42.694;23.282;2022-10-18T00:54:40;96157.06;;;6.64;96.55
6464;BME280;3265;42.694;23.282;2022-10-18T00:57:09;96151.47;;;6.76;95.34
6464;BME280;3265;42.694;23.282;2022-10-18T00:59:36;96153.91;;;6.86;94.71
6464;BME280;3265;42.694;23.282;2022-10-18T01:02:04;96147.44;;;6.90;94.06
6464;BME280;3265;42.694;23.282;2022-10-18T01:04:33;96148.25;;;6.91;93.30
6464;BME280;3265;42.694;23.282;2022-10-18T01:07:05;96144.09;;;6.90;92.18
6464;BME280;3265;42.694;23.282;2022-10-18T01:09:39;96140.81;;;6.88;92.59
6464;BME280;3265;42.694;23.282;2022-10-18T01:12:15;96132.44;;;6.85;93.05
6464;BME280;3265;42.694;23.282;2022-10-18T01:14:48;96135.50;;;6.89;92.67
6464;BME280;3265;42.694;23.282;2022-10-18T01:17:21;96128.56;;;6.90;92.57
6464;BME280;3265;42.694;23.282;2022-10-18T01:20:03;96125.94;;;6.81;92.91
6464;BME280;3265;42.694;23.282;2022-10-18T01:22:36;96128.72;;;6.88;92.06
6464;BME280;3265;42.694;23.282;2022-10-18T01:25:15;96130.34;;;6.89;92.42
6464;BME280;3265;42.694;23.282;2022-10-18T01:27:53;96137.28;;;6.89;92.34
6464;BME280;3265;42.694;23.282;2022-10-18T01:30:46;96133.25;;;6.86;92.11
6464;BME280;3265;42.694;23.282;2022-10-18T01:33:24;96126.78;;;6.90;91.71
6464;BME280;3265;42.694;23.282;2022-10-18T01:35:55;96125.16;;;6.81;91.93
6464;BME280;3265;42.694;23.282;2022-10-18T01:38:25;96120.22;;;6.46;91.84
6464;BME280;3265;42.694;23.282;2022-10-18T01:40:53;96125.19;;;6.05;93.70
6464;BME280;3265;42.694;23.282;2022-10-18T01:43:22;96131.41;;;5.95;97.63
6464;BME280;3265;42.694;23.282;2022-10-18T01:45:52;96126.31;;;6.03;96.98
6464;BME280;3265;42.694;23.282;2022-10-18T01:48:20;96120.13;;;5.96;97.20
6464;BME280;3265;42.694;23.282;2022-10-18T01:50:47;96120.88;;;6.14;96.38
6464;BME280;3265;42.694;23.282;2022-10-18T01:53:21;96119.47;;;6.19;96.44
6464;BME280;3265;42.694;23.282;2022-10-18T01:55:56;96117.84;;;6.26;95.05
6464;BME280;3265;42.694;23.282;2022-10-18T01:58:34;96111.44;;;6.31;95.01
6464;BME280;3265;42.694;23.282;2022-10-18T02:01:07;96119.69;;;6.34;95.24
6464;BME280;3265;42.694;23.282;2022-10-18T02:03:42;96105.78;;;6.35;95.12
6464;BME280;3265;42.694;23.282;2022-10-18T02:06:18;96125.50;;;6.44;94.19
6464;BME280;3265;42.694;23.282;2022-10-18T02:08:49;96109.25;;;6.52;93.50
6464;BME280;3265;42.694;23.282;2022-10-18T02:11:18;96109.41;;;6.50;93.47
6464;BME280;3265;42.694;23.282;2022-10-18T02:13:48;96108.13;;;6.46;93.63
6464;BME280;3265;42.694;23.282;2022-10-18T02:16:20;96095.53;;;6.43;93.49
6464;BME280;3265;42.694;23.282;2022-10-18T02:18:52;96100.06;;;6.49;92.90
6464;BME280;3265;42.694;23.282;2022-10-18T02:21:21;96111.00;;;6.43;92.84
6464;BME280;3265;42.694;23.282;2022-10-18T02:23:49;96110.81;;;6.37;93.55
6464;BME280;3265;42.694;23.282;2022-10-18T02:26:17;96111.84;;;6.18;93.86
6464;BME280;3265;42.694;23.282;2022-10-18T02:28:44;96104.91;;;5.85;94.60
6464;BME280;3265;42.694;23.282;2022-10-18T02:31:17;96101.09;;;5.45;98.40
6464;BME280;3265;42.694;23.282;2022-10-18T02:33:51;96103.75;;;5.53;99.60
6464;BME280;3265;42.694;23.282;2022-10-18T02:36:25;96097.69;;;5.62;99.59
6464;BME280;3265;42.694;23.282;2022-10-18T02:38:55;96108.25;;;5.77;98.10
6464;BME280;3265;42.694;23.282;2022-10-18T02:41:23;96107.47;;;5.85;97.60
6464;BME280;3265;42.694;23.282;2022-10-18T02:43:50;96103.50;;;5.90;97.25
6464;BME280;3265;42.694;23.282;2022-10-18T02:46:17;96107.59;;;6.01;95.92
6464;BME280;3265;42.694;23.282;2022-10-18T02:48:44;96113.91;;;6.06;95.07
6464;BME280;3265;42.694;23.282;2022-10-18T02:51:12;96111.50;;;6.13;95.26
6464;BME280;3265;42.694;23.282;2022-10-18T02:53:39;96117.16;;;6.08;95.38
6464;BME280;3265;42.694;23.282;2022-10-18T02:56:06;96105.72;;;6.11;95.88
6464;BME280;3265;42.694;23.282;2022-10-18T02:58:33;96115.88;;;6.12;95.30
6464;BME280;3265;42.694;23.282;2022-10-18T03:01:00;96117.19;;;6.16;95.12
6464;BME280;3265;42.694;23.282;2022-10-18T03:03:27;96102.66;;;6.15;94.89
6464;BME280;3265;42.694;23.282;2022-10-18T03:05:53;96109.28;;;6.18;94.88
6464;BME280;3265;42.694;23.282;2022-10-18T03:08:22;96110.72;;;6.20;94.35
6464;BME280;3265;42.694;23.282;2022-10-18T03:10:48;96108.53;;;6.25;93.61
6464;BME280;3265;42.694;23.282;2022-10-18T03:13:15;96108.00;;;6.22;93.42
6464;BME280;3265;42.694;23.282;2022-10-18T03:15:42;96105.25;;;6.23;93.71
6464;BME280;3265;42.694;23.282;2022-10-18T03:18:09;96099.00;;;5.92;93.03
6464;BME280;3265;42.694;23.282;2022-10-18T03:20:36;96100.97;;;5.29;95.32
6464;BME280;3265;42.694;23.282;2022-10-18T03:23:03;96102.25;;;4.90;100.00
6464;BME280;3265;42.694;23.282;2022-10-18T03:25:32;96104.44;;;5.02;100.00
6464;BME280;3265;42.694;23.282;2022-10-18T03:28:00;96103.28;;;4.97;100.00
6464;BME280;3265;42.694;23.282;2022-10-18T03:30:26;96095.78;;;5.03;100.00
6464;BME280;3265;42.694;23.282;2022-10-18T03:32:53;96108.00;;;5.19;100.00
6464;BME280;3265;42.694;23.282;2022-10-18T03:35:20;96110.03;;;5.33;100.00
6464;BME280;3265;42.694;23.282;2022-10-18T03:37:47;96098.97;;;5.41;99.78
6464;BME280;3265;42.694;23.282;2022-10-18T03:40:14;96103.75;;;5.53;99.04
6464;BME280;3265;42.694;23.282;2022-10-18T03:42:43;96105.84;;;5.58;98.47
6464;BME280;3265;42.694;23.282;2022-10-18T03:45:09;96101.03;;;5.63;97.97
6464;BME280;3265;42.694;23.282;2022-10-18T03:47:36;96114.31;;;5.68;97.73
6464;BME280;3265;42.694;23.282;2022-10-18T03:50:04;96112.22;;;5.71;97.61
6464;BME280;3265;42.694;23.282;2022-10-18T03:52:31;96110.00;;;5.77;96.67
6464;BME280;3265;42.694;23.282;2022-10-18T03:54:57;96115.50;;;5.82;96.27
6464;BME280;3265;42.694;23.282;2022-10-18T03:57:24;96122.69;;;5.88;96.10
6464;BME280;3265;42.694;23.282;2022-10-18T03:59:52;96120.38;;;5.85;95.86
6464;BME280;3265;42.694;23.282;2022-10-18T04:02:19;96116.16;;;5.84;95.47
6464;BME280;3265;42.694;23.282;2022-10-18T04:04:46;96115.66;;;5.80;95.30
6464;BME280;3265;42.694;23.282;2022-10-18T04:07:14;96115.00;;;5.78;95.73
6464;BME280;3265;42.694;23.282;2022-10-18T04:09:41;96102.19;;;5.43;95.94
6464;BME280;3265;42.694;23.282;2022-10-18T04:12:07;96108.94;;;5.00;96.83
6464;BME280;3265;42.694;23.282;2022-10-18T04:14:34;96110.78;;;4.73;100.00
6464;BME280;3265;42.694;23.282;2022-10-18T04:17:02;96112.63;;;4.80;100.00
6464;BME280;3265;42.694;23.282;2022-10-18T04:19:29;96112.56;;;4.90;100.00
6464;BME280;3265;42.694;23.282;2022-10-18T04:21:56;96109.81;;;4.91;100.00
6464;BME280;3265;42.694;23.282;2022-10-18T04:24:23;96105.13;;;5.04;100.00
6464;BME280;3265;42.694;23.282;2022-10-18T04:26:50;96093.84;;;5.05;100.00
6464;BME280;3265;42.694;23.282;2022-10-18T04:29:17;96115.56;;;5.21;100.00
6464;BME280;3265;42.694;23.282;2022-10-18T04:31:43;96103.03;;;5.26;99.12
6464;BME280;3265;42.694;23.282;2022-10-18T04:34:12;96112.00;;;5.39;98.84
6464;BME280;3265;42.694;23.282;2022-10-18T04:36:38;96105.94;;;5.48;97.74
6464;BME280;3265;42.694;23.282;2022-10-18T04:39:05;96108.16;;;5.43;97.89
6464;BME280;3265;42.694;23.282;2022-10-18T04:41:32;96108.03;;;5.45;97.76
6464;BME280;3265;42.694;23.282;2022-10-18T04:43:59;96109.13;;;5.42;98.19
6464;BME280;3265;42.694;23.282;2022-10-18T04:46:26;96105.06;;;5.40;98.67
6464;BME280;3265;42.694;23.282;2022-10-18T04:48:53;96104.94;;;5.41;98.28
6464;BME280;3265;42.694;23.282;2022-10-18T04:51:21;96105.44;;;5.45;98.56
6464;BME280;3265;42.694;23.282;2022-10-18T04:53:48;96095.13;;;5.45;98.34
6464;BME280;3265;42.694;23.282;2022-10-18T04:56:15;96098.19;;;5.48;98.46
6464;BME280;3265;42.694;23.282;2022-10-18T04:58:41;96094.84;;;5.48;99.00
6464;BME280;3265;42.694;23.282;2022-10-18T05:01:12;96097.97;;;5.59;97.80
6464;BME280;3265;42.694;23.282;2022-10-18T05:03:40;96091.25;;;5.66;97.90
6464;BME280;3265;42.694;23.282;2022-10-18T05:06:07;96089.69;;;5.73;96.86
6464;BME280;3265;42.694;23.282;2022-10-18T05:08:36;96092.66;;;5.61;97.22
6464;BME280;3265;42.694;23.282;2022-10-18T05:11:03;96096.09;;;5.69;97.03
6464;BME280;3265;42.694;23.282;2022-10-18T05:13:30;96093.50;;;5.69;96.91
6464;BME280;3265;42.694;23.282;2022-10-18T05:15:57;96090.78;;;5.71;96.85
6464;BME280;3265;42.694;23.282;2022-10-18T05:18:25;96079.00;;;5.68;96.92
6464;BME280;3265;42.694;23.282;2022-10-18T05:20:51;96094.38;;;5.78;96.25
6464;BME280;3265;42.694;23.282;2022-10-18T05:23:18;96089.38;;;5.77;96.80
6464;BME280;3265;42.694;23.282;2022-10-18T05:25:47;96090.97;;;5.78;97.81
6464;BME280;3265;42.694;23.282;2022-10-18T05:28:14;96090.03;;;5.79;97.52
6464;BME280;3265;42.694;23.282;2022-10-18T05:30:41;96090.31;;;5.76;97.95
6464;BME280;3265;42.694;23.282;2022-10-18T05:33:08;96096.06;;;5.87;97.23
6464;BME280;3265;42.694;23.282;2022-10-18T05:35:35;96093.19;;;5.90;96.52
6464;BME280;3265;42.694;23.282;2022-10-18T05:38:02;96097.88;;;5.95;96.72
6464;BME280;3265;42.694;23.282;2022-10-18T05:40:30;96102.72;;;5.98;96.24
6464;BME280;3265;42.694;23.282;2022-10-18T05:42:58;96097.22;;;5.93;96.09
6464;BME280;3265;42.694;23.282;2022-10-18T05:45:25;96110.44;;;5.90;97.11
6464;BME280;3265;42.694;23.282;2022-10-18T05:47:51;96097.88;;;5.95;96.53
6464;BME280;3265;42.694;23.282;2022-10-18T05:50:18;96096.91;;;5.96;96.24
6464;BME280;3265;42.694;23.282;2022-10-18T05:52:45;96105.38;;;6.06;96.05
6464;BME280;3265;42.694;23.282;2022-10-18T05:55:12;96109.72;;;6.05;96.03
6464;BME280;3265;42.694;23.282;2022-10-18T05:57:38;96101.59;;;6.00;96.67
6464;BME280;3265;42.694;23.282;2022-10-18T06:00:09;96101.81;;;6.07;96.03
6464;BME280;3265;42.694;23.282;2022-10-18T06:02:36;96108.63;;;6.16;95.90
6464;BME280;3265;42.694;23.282;2022-10-18T06:05:03;96105.47;;;6.30;95.39
6464;BME280;3265;42.694;23.282;2022-10-18T06:07:30;96104.34;;;6.33;94.37
6464;BME280;3265;42.694;23.282;2022-10-18T06:09:56;96108.38;;;6.35;94.30
6464;BME280;3265;42.694;23.282;2022-10-18T06:12:23;96110.16;;;6.35;94.33
6464;BME280;3265;42.694;23.282;2022-10-18T06:14:50;96098.72;;;6.37;94.24
6464;BME280;3265;42.694;23.282;2022-10-18T06:17:18;96109.56;;;6.49;94.15
6464;BME280;3265;42.694;23.282;2022-10-18T06:19:45;96110.22;;;6.51;93.95
6464;BME280;3265;42.694;23.282;2022-10-18T06:22:12;96101.84;;;6.57;94.25
6464;BME280;3265;42.694;23.282;2022-10-18T06:24:38;96103.63;;;6.56;94.54
6464;BME280;3265;42.694;23.282;2022-10-18T06:27:05;96098.63;;;6.63;94.31
6464;BME280;3265;42.694;23.282;2022-10-18T06:29:33;96102.69;;;6.65;94.03
6464;BME280;3265;42.694;23.282;2022-10-18T06:32:00;96100.28;;;6.72;94.45
6464;BME280;3265;42.694;23.282;2022-10-18T06:34:28;96102.69;;;6.81;94.18
6464;BME280;3265;42.694;23.282;2022-10-18T06:36:59;96050.66;;;6.52;93.52
6464;BME280;3265;42.694;23.282;2022-10-18T06:39:32;96082.03;;;6.73;94.11
6464;BME280;3265;42.694;23.282;2022-10-18T06:43:42;96076.53;;;6.76;93.91
6464;BME280;3265;42.694;23.282;2022-10-18T06:46:26;96071.22;;;6.78;94.25
6464;BME280;3265;42.694;23.282;2022-10-18T06:49:06;96106.13;;;7.06;94.43
6464;BME280;3265;42.694;23.282;2022-10-18T06:51:33;96108.41;;;7.09;94.54
6464;BME280;3265;42.694;23.282;2022-10-18T06:54:00;96114.41;;;7.18;94.35
6464;BME280;3265;42.694;23.282;2022-10-18T06:56:27;96106.31;;;7.21;94.35
6464;BME280;3265;42.694;23.282;2022-10-18T06:58:55;96113.25;;;7.28;94.12
6464;BME280;3265;42.694;23.282;2022-10-18T07:01:22;96110.03;;;7.34;93.31
6464;BME280;3265;42.694;23.282;2022-10-18T07:03:52;96099.19;;;7.39;92.50
6464;BME280;3265;42.694;23.282;2022-10-18T07:06:19;96095.31;;;7.43;92.02
6464;BME280;3265;42.694;23.282;2022-10-18T07:08:48;96106.31;;;7.53;92.08
6464;BME280;3265;42.694;23.282;2022-10-18T07:11:16;96113.41;;;7.59;92.16
6464;BME280;3265;42.694;23.282;2022-10-18T07:13:44;96113.88;;;7.63;91.08
6464;BME280;3265;42.694;23.282;2022-10-18T07:16:13;96109.19;;;7.66;90.97
6464;BME280;3265;42.694;23.282;2022-10-18T07:18:42;96101.44;;;7.58;91.59
6464;BME280;3265;42.694;23.282;2022-10-18T07:21:11;96093.03;;;7.72;90.42
6464;BME280;3265;42.694;23.282;2022-10-18T07:23:39;96104.13;;;7.89;90.32
6464;BME280;3265;42.694;23.282;2022-10-18T07:26:12;96097.00;;;7.99;89.79
6464;BME280;3265;42.694;23.282;2022-10-18T07:28:39;96097.31;;;8.04;88.40
6464;BME280;3265;42.694;23.282;2022-10-18T07:31:07;96099.38;;;8.09;88.91
6464;BME280;3265;42.694;23.282;2022-10-18T07:33:36;96090.03;;;8.08;89.33
6464;BME280;3265;42.694;23.282;2022-10-18T08:42:20;96001.31;;;12.25;68.86
6464;BME280;3265;42.694;23.282;2022-10-18T08:44:50;96012.91;;;12.77;66.42
6464;BME280;3265;42.694;23.282;2022-10-18T08:47:19;96014.81;;;13.16;65.65
6464;BME280;3265;42.694;23.282;2022-10-18T08:49:48;96009.56;;;13.55;62.88
6464;BME280;3265;42.694;23.282;2022-10-18T08:52:23;96005.09;;;13.88;62.63
6464;BME280;3265;42.694;23.282;2022-10-18T08:54:59;96011.59;;;14.30;60.05
6464;BME280;3265;42.694;23.282;2022-10-18T08:57:29;95999.81;;;14.65;58.93
6464;BME280;3265;42.694;23.282;2022-10-18T08:59:57;96010.25;;;15.03;57.80
6464;BME280;3265;42.694;23.282;2022-10-18T09:02:40;96006.50;;;15.49;55.90
6464;BME280;3265;42.694;23.282;2022-10-18T09:05:18;96000.38;;;15.79;54.98
6464;BME280;3265;42.694;23.282;2022-10-18T09:08:00;96009.22;;;16.21;52.83
6464;BME280;3265;42.694;23.282;2022-10-18T09:10:50;96005.66;;;16.16;51.92
6464;BME280;3265;42.694;23.282;2022-10-18T09:16:35;96001.25;;;16.94;50.79
6464;BME280;3265;42.694;23.282;2022-10-18T09:19:14;95995.75;;;17.37;49.33
6464;BME280;3265;42.694;23.282;2022-10-18T09:21:49;95994.19;;;17.82;48.13
6464;BME280;3265;42.694;23.282;2022-10-18T09:24:24;96005.78;;;18.33;46.83
6464;BME280;3265;42.694;23.282;2022-10-18T09:26:56;95995.50;;;18.71;45.54
6464;BME280;3265;42.694;23.282;2022-10-18T09:29:41;96002.59;;;18.99;44.50
6464;BME280;3265;42.694;23.282;2022-10-18T09:32:24;95994.53;;;19.05;43.10
6464;BME280;3265;42.694;23.282;2022-10-18T09:34:56;95994.00;;;19.37;42.43
6464;BME280;3265;42.694;23.282;2022-10-18T09:37:26;95983.16;;;19.66;42.10
6464;BME280;3265;42.694;23.282;2022-10-18T09:40:02;96002.09;;;20.18;41.50
6464;BME280;3265;42.694;23.282;2022-10-18T09:42:34;95989.84;;;20.51;39.79
6464;BME280;3265;42.694;23.282;2022-10-18T09:45:06;95985.75;;;20.86;38.84
6464;BME280;3265;42.694;23.282;2022-10-18T09:47:44;95988.69;;;20.90;37.47
6464;BME280;3265;42.694;23.282;2022-10-18T09:50:16;95985.38;;;20.51;38.49
6464;BME280;3265;42.694;23.282;2022-10-18T09:52:50;95981.25;;;20.38;39.26
6464;BME280;3265;42.694;23.282;2022-10-18T09:55:25;95972.88;;;20.68;38.62
6464;BME280;3265;42.694;23.282;2022-10-18T09:57:58;95984.09;;;21.34;37.22
6464;BME280;3265;42.694;23.282;2022-10-18T10:00:29;95982.59;;;21.85;36.14
6464;BME280;3265;42.694;23.282;2022-10-18T10:03:00;95967.22;;;22.24;35.67
6464;BME280;3265;42.694;23.282;2022-10-18T10:05:27;95970.25;;;22.52;34.56
6464;BME280;3265;42.694;23.282;2022-10-18T10:07:57;95967.41;;;22.69;33.58
6464;BME280;3265;42.694;23.282;2022-10-18T10:10:28;95959.38;;;22.49;33.87
6464;BME280;3265;42.694;23.282;2022-10-18T10:13:03;95950.66;;;22.53;34.76
6464;BME280;3265;42.694;23.282;2022-10-18T10:15:30;95955.84;;;23.05;34.28
6464;BME280;3265;42.694;23.282;2022-10-18T10:18:02;95939.91;;;23.61;32.95
6464;BME280;3265;42.694;23.282;2022-10-18T10:20:33;95934.44;;;24.32;33.04
6464;BME280;3265;42.694;23.282;2022-10-18T10:23:06;95932.28;;;24.93;30.45
6464;BME280;3265;42.694;23.282;2022-10-18T10:25:35;95928.63;;;24.73;30.51
6464;BME280;3265;42.694;23.282;2022-10-18T10:28:05;95926.50;;;24.26;30.15
6464;BME280;3265;42.694;23.282;2022-10-18T10:30:33;95922.00;;;24.17;31.29
6464;BME280;3265;42.694;23.282;2022-10-18T10:33:04;95919.63;;;24.69;31.37
6464;BME280;3265;42.694;23.282;2022-10-18T10:35:33;95915.00;;;25.24;30.65
6464;BME280;3265;42.694;23.282;2022-10-18T10:38:01;95906.91;;;25.34;30.32
6464;BME280;3265;42.694;23.282;2022-10-18T10:40:28;95907.13;;;25.95;29.43
6464;BME280;3265;42.694;23.282;2022-10-18T10:43:05;95900.63;;;26.30;27.99
6464;BME280;3265;42.694;23.282;2022-10-18T10:45:35;95888.09;;;26.30;27.92
6464;BME280;3265;42.694;23.282;2022-10-18T10:48:13;95882.06;;;26.43;27.80
6464;BME280;3265;42.694;23.282;2022-10-18T10:50:59;95876.53;;;26.16;27.41
6464;BME280;3265;42.694;23.282;2022-10-18T10:53:37;95872.06;;;26.12;28.89
6464;BME280;3265;42.694;23.282;2022-10-18T10:56:06;95865.63;;;26.13;27.75
6464;BME280;3265;42.694;23.282;2022-10-18T10:58:40;95871.31;;;26.67;28.36
6464;BME280;3265;42.694;23.282;2022-10-18T11:01:30;95859.78;;;26.90;27.82
6464;BME280;3265;42.694;23.282;2022-10-18T11:04:00;95864.38;;;27.03;26.65
6464;BME280;3265;42.694;23.282;2022-10-18T11:06:46;95860.28;;;27.25;26.75
6464;BME280;3265;42.694;23.282;2022-10-18T11:09:24;95860.66;;;27.50;26.51
6464;BME280;3265;42.694;23.282;2022-10-18T11:12:00;95855.25;;;27.37;25.72
6464;BME280;3265;42.694;23.282;2022-10-18T11:14:29;95852.25;;;27.57;24.98
6464;BME280;3265;42.694;23.282;2022-10-18T11:17:10;95836.78;;;27.40;25.73
6464;BME280;3265;42.694;23.282;2022-10-18T11:19:58;95850.19;;;27.54;26.15
6464;BME280;3265;42.694;23.282;2022-10-18T11:22:32;95835.63;;;27.46;24.60
6464;BME280;3265;42.694;23.282;2022-10-18T11:25:01;95831.19;;;27.96;24.93
6464;BME280;3265;42.694;23.282;2022-10-18T11:27:33;95831.06;;;28.29;23.96
6464;BME280;3265;42.694;23.282;2022-10-18T11:30:26;95826.41;;;28.70;23.98
6464;BME280;3265;42.694;23.282;2022-10-18T11:33:05;95809.06;;;28.67;23.03
6464;BME280;3265;42.694;23.282;2022-10-18T11:35:44;95814.72;;;29.10;23.34
6464;BME280;3265;42.694;23.282;2022-10-18T11:38:28;95798.97;;;29.40;23.28
6464;BME280;3265;42.694;23.282;2022-10-18T11:41:06;95799.97;;;29.83;21.51
6464;BME280;3265;42.694;23.282;2022-10-18T11:43:40;95794.22;;;29.76;20.53
6464;BME280;3265;42.694;23.282;2022-10-18T11:46:18;95800.31;;;30.07;20.40
6464;BME280;3265;42.694;23.282;2022-10-18T11:49:01;95802.47;;;30.45;20.70
6464;BME280;3265;42.694;23.282;2022-10-18T11:51:34;95793.00;;;30.56;19.32
6464;BME280;3265;42.694;23.282;2022-10-18T11:54:17;95795.03;;;30.67;19.91
6464;BME280;3265;42.694;23.282;2022-10-18T11:56:51;95789.66;;;30.67;20.08
6464;BME280;3265;42.694;23.282;2022-10-18T11:59:27;95777.66;;;30.73;19.58
6464;BME280;3265;42.694;23.282;2022-10-18T12:02:08;95769.44;;;30.78;18.44
6464;BME280;3265;42.694;23.282;2022-10-18T12:04:44;95776.22;;;30.76;18.29
6464;BME280;3265;42.694;23.282;2022-10-18T12:07:18;95768.31;;;30.97;18.18
6464;BME280;3265;42.694;23.282;2022-10-18T12:09:49;95760.63;;;30.44;17.72
6464;BME280;3265;42.694;23.282;2022-10-18T12:12:21;95755.53;;;30.33;18.19
6464;BME280;3265;42.694;23.282;2022-10-18T12:14:52;95749.84;;;30.69;17.84
6464;BME280;3265;42.694;23.282;2022-10-18T12:17:31;95748.88;;;31.00;18.28
6464;BME280;3265;42.694;23.282;2022-10-18T12:20:03;95746.38;;;31.32;17.81
6464;BME280;3265;42.694;23.282;2022-10-18T12:22:35;95739.47;;;31.61;17.40
6464;BME280;3265;42.694;23.282;2022-10-18T12:25:05;95735.72;;;31.82;16.87
6464;BME280;3265;42.694;23.282;2022-10-18T12:27:38;95736.53;;;31.83;16.09
6464;BME280;3265;42.694;23.282;2022-10-18T12:30:16;95733.75;;;31.71;16.19
6464;BME280;3265;42.694;23.282;2022-10-18T12:32:43;95739.66;;;32.14;16.03
6464;BME280;3265;42.694;23.282;2022-10-18T12:35:14;95729.25;;;32.45;15.57
6464;BME280;3265;42.694;23.282;2022-10-18T12:38:03;95723.72;;;32.83;15.45
6464;BME280;3265;42.694;23.282;2022-10-18T12:40:38;95735.72;;;33.19;14.67
6464;BME280;3265;42.694;23.282;2022-10-18T12:43:08;95724.72;;;33.36;14.73
6464;BME280;3265;42.694;23.282;2022-10-18T12:45:48;95712.25;;;33.55;14.02
6464;BME280;3265;42.694;23.282;2022-10-18T12:48:31;95721.91;;;33.93;14.59
6464;BME280;3265;42.694;23.282;2022-10-18T12:51:02;95721.94;;;34.33;14.30
6464;BME280;3265;42.694;23.282;2022-10-18T12:53:32;95722.75;;;34.61;13.91
6464;BME280;3265;42.694;23.282;2022-10-18T12:56:34;95717.81;;;34.63;12.93
6464;BME280;3265;42.694;23.282;2022-10-18T13:08:35;95715.50;;;34.93;12.53
6464;BME280;3265;42.694;23.282;2022-10-18T13:11:30;95718.41;;;35.00;12.69
6464;BME280;3265;42.694;23.282;2022-10-18T13:14:27;95705.09;;;35.22;12.96
6464;BME280;3265;42.694;23.282;2022-10-18T13:17:05;95702.38;;;35.38;12.77
6464;BME280;3265;42.694;23.282;2022-10-18T13:19:43;95697.31;;;35.37;12.75
6464;BME280;3265;42.694;23.282;2022-10-18T13:22:27;95699.31;;;35.24;12.32
6464;BME280;3265;42.694;23.282;2022-10-18T13:25:02;95692.97;;;34.73;12.33
6464;BME280;3265;42.694;23.282;2022-10-18T13:27:39;95688.91;;;34.51;12.45
6464;BME280;3265;42.694;23.282;2022-10-18T13:30:30;95684.50;;;34.59;12.22
6464;BME280;3265;42.694;23.282;2022-10-18T13:33:08;95683.34;;;35.03;12.26
6464;BME280;3265;42.694;23.282;2022-10-18T13:35:50;95684.31;;;35.11;12.21
6464;BME280;3265;42.694;23.282;2022-10-18T13:41:16;95673.16;;;35.44;12.00
6464;BME280;3265;42.694;23.282;2022-10-18T13:50:15;95670.16;;;35.49;11.87
6464;BME280;3265;42.694;23.282;2022-10-18T13:53:08;95659.53;;;35.40;11.82
6464;BME280;3265;42.694;23.282;2022-10-18T13:55:50;95650.63;;;35.40;12.23
6464;BME280;3265;42.694;23.282;2022-10-18T13:58:25;95662.78;;;35.80;11.49
6464;BME280;3265;42.694;23.282;2022-10-18T14:01:06;95656.28;;;34.44;11.77
6464;BME280;3265;42.694;23.282;2022-10-18T14:04:04;95644.78;;;32.50;12.67
6464;BME280;3265;42.694;23.282;2022-10-18T14:06:39;95644.72;;;30.50;14.28
6464;BME280;3265;42.694;23.282;2022-10-18T14:09:14;95629.63;;;29.12;14.96
6464;BME280;3265;42.694;23.282;2022-10-18T14:11:44;95608.19;;;27.75;15.90
6464;BME280;3265;42.694;23.282;2022-10-18T14:14:16;95611.06;;;26.75;16.47
6464;BME280;3265;42.694;23.282;2022-10-18T14:16:47;95617.41;;;25.82;17.74
6464;BME280;3265;42.694;23.282;2022-10-18T14:19:19;95604.31;;;25.06;17.58
6464;BME280;3265;42.694;23.282;2022-10-18T14:21:54;95605.88;;;24.36;18.76
6464;BME280;3265;42.694;23.282;2022-10-18T14:24:25;95594.81;;;23.95;18.52
6464;BME280;3265;42.694;23.282;2022-10-18T14:27:17;95594.06;;;23.50;19.85
6464;BME280;3265;42.694;23.282;2022-10-18T14:29:46;95591.06;;;23.13;20.07
6464;BME280;3265;42.694;23.282;2022-10-18T14:32:25;95581.38;;;22.83;20.62
6464;BME280;3265;42.694;23.282;2022-10-18T14:34:52;95579.88;;;22.47;21.46
6464;BME280;3265;42.694;23.282;2022-10-18T14:37:27;95587.09;;;22.21;20.68
6464;BME280;3265;42.694;23.282;2022-10-18T14:39:55;95578.66;;;21.99;21.19
6464;BME280;3265;42.694;23.282;2022-10-18T14:42:24;95581.78;;;21.71;20.96
6464;BME280;3265;42.694;23.282;2022-10-18T14:44:53;95583.63;;;21.50;21.56
6464;BME280;3265;42.694;23.282;2022-10-18T14:47:21;95563.75;;;21.22;21.33
6464;BME280;3265;42.694;23.282;2022-10-18T14:49:50;95570.13;;;21.31;22.03
6464;BME280;3265;42.694;23.282;2022-10-18T14:52:21;95567.97;;;21.18;22.38
6464;BME280;3265;42.694;23.282;2022-10-18T14:54:53;95564.19;;;20.94;22.42
6464;BME280;3265;42.694;23.282;2022-10-18T14:57:23;95554.88;;;20.76;22.41
6464;BME280;3265;42.694;23.282;2022-10-18T14:59:59;95562.50;;;20.63;22.86
6464;BME280;3265;42.694;23.282;2022-10-18T15:02:29;95557.72;;;20.55;22.96
6464;BME280;3265;42.694;23.282;2022-10-18T15:04:58;95564.53;;;20.46;22.77
6464;BME280;3265;42.694;23.282;2022-10-18T15:07:31;95552.84;;;20.36;23.65
6464;BME280;3265;42.694;23.282;2022-10-18T15:10:00;95548.56;;;20.25;24.06
6464;BME280;3265;42.694;23.282;2022-10-18T15:12:30;95544.00;;;20.16;23.56